createdAt,value
2018-02-09T00:01:05.974Z,23.80
2018-02-09T00:03:34.431Z,22.10
2018-02-09T00:06:02.859Z,24.35
2018-02-09T00:08:31.263Z,22.17
2018-02-09T00:10:59.673Z,22.25
2018-02-09T00:13:28.124Z,23.05
2018-02-09T00:15:56.588Z,21.08
2018-02-09T00:18:25.051Z,20.30
2018-02-09T00:20:53.444Z,20.65
2018-02-09T00:23:21.877Z,21.42
2018-02-09T00:25:50.290Z,21.67
2018-02-09T00:28:18.677Z,23.73
2018-02-09T00:30:47.165Z,21.02
2018-02-09T00:33:15.670Z,22.08
2018-02-09T00:35:44.206Z,23.10
2018-02-09T00:38:12.698Z,20.35
2018-02-09T00:40:41.096Z,21.48
2018-02-09T00:43:09.533Z,21.65
2018-02-09T00:45:37.969Z,20.62
2018-02-09T00:48:06.459Z,19.17
2018-02-09T00:50:34.871Z,22.52
2018-02-09T00:53:03.273Z,22.45
2018-02-09T00:55:31.694Z,20.45
2018-02-09T00:58:00.119Z,19.73
2018-02-09T01:00:28.694Z,20.62
2018-02-09T01:02:57.107Z,20.73
2018-02-09T01:05:25.529Z,18.92
2018-02-09T01:07:53.964Z,18.00
2018-02-09T01:10:22.373Z,19.67
2018-02-09T01:12:50.822Z,19.85
2018-02-09T01:15:19.235Z,19.40
2018-02-09T01:17:47.795Z,17.40
2018-02-09T01:20:16.285Z,20.20
2018-02-09T01:22:44.783Z,20.45
2018-02-09T01:25:13.180Z,18.77
2018-02-09T01:27:41.694Z,16.58
2018-02-09T01:30:10.101Z,16.85
2018-02-09T01:32:38.514Z,17.35
2018-02-09T01:35:06.984Z,16.20
2018-02-09T01:37:35.408Z,16.83
2018-02-09T01:40:03.807Z,15.65
2018-02-09T01:42:32.303Z,15.65
2018-02-09T01:45:00.713Z,16.17
2018-02-09T01:47:29.158Z,14.30
2018-02-09T01:50:09.418Z,14.48
2018-02-09T01:52:37.864Z,13.55
2018-02-09T01:55:06.356Z,15.80
2018-02-09T01:57:34.754Z,15.40
2018-02-09T02:00:03.225Z,14.82
2018-02-09T02:02:31.618Z,15.55
2018-02-09T02:05:00.221Z,15.50
2018-02-09T02:07:28.618Z,15.63
2018-02-09T02:09:57.130Z,15.70
2018-02-09T02:12:25.522Z,15.65
2018-02-09T02:14:53.914Z,14.50
2018-02-09T02:17:22.372Z,14.95
2018-02-09T02:19:50.753Z,13.85
2018-02-09T02:22:19.137Z,14.45
2018-02-09T02:24:47.546Z,12.77
2018-02-09T02:27:16.009Z,12.10
2018-02-09T02:29:44.461Z,11.65
2018-02-09T02:32:12.952Z,10.90
2018-02-09T02:34:41.356Z,10.73
2018-02-09T02:37:09.755Z,10.75
2018-02-09T02:39:38.156Z,13.05
2018-02-09T02:42:06.592Z,12.57
2018-02-09T02:44:35.061Z,11.55
2018-02-09T02:47:03.535Z,11.02
2018-02-09T02:49:31.938Z,11.30
2018-02-09T02:52:00.352Z,10.43
2018-02-09T02:54:28.772Z,10.45
2018-02-09T02:56:57.150Z,9.15
2018-02-09T02:59:25.625Z,9.23
2018-02-09T03:01:54.036Z,9.00
2018-02-09T03:04:22.422Z,10.00
2018-02-09T03:06:50.914Z,11.55
2018-02-09T03:09:19.318Z,10.73
2018-02-09T03:11:47.757Z,11.25
2018-02-09T03:14:16.195Z,10.43
2018-02-09T03:16:44.742Z,11.73
2018-02-09T03:19:13.130Z,10.20
2018-02-09T03:21:41.533Z,10.15
2018-02-09T03:24:09.921Z,8.95
2018-02-09T03:26:38.303Z,9.80
2018-02-09T03:29:07.050Z,8.20
2018-02-09T03:31:35.547Z,8.05
2018-02-09T03:34:03.961Z,9.10
2018-02-09T03:36:32.350Z,8.90
2018-02-09T03:39:00.741Z,8.70
2018-02-09T03:41:29.177Z,8.85
2018-02-09T03:43:57.691Z,8.38
2018-02-09T03:46:26.070Z,10.38
2018-02-09T03:48:54.470Z,8.23
2018-02-09T03:51:22.868Z,7.85
2018-02-09T03:53:51.261Z,9.82
2018-02-09T03:56:19.664Z,8.48
2018-02-09T03:58:48.199Z,8.30
2018-02-09T04:01:16.654Z,8.32
2018-02-09T04:03:45.105Z,6.45
2018-02-09T04:06:13.503Z,6.95
2018-02-09T04:08:41.881Z,6.50
2018-02-09T04:11:10.277Z,5.97
2018-02-09T04:13:38.733Z,6.15
2018-02-09T04:16:07.132Z,5.90
2018-02-09T04:18:35.514Z,5.53
2018-02-09T04:21:04.001Z,5.28
2018-02-09T04:23:32.398Z,5.15
2018-02-09T04:26:00.827Z,5.25
2018-02-09T04:28:29.201Z,4.30
2018-02-09T04:30:57.758Z,5.15
2018-02-09T04:33:26.130Z,4.95
2018-02-09T04:35:54.522Z,5.00
2018-02-09T04:38:22.903Z,4.70
2018-02-09T04:40:51.290Z,5.10
2018-02-09T04:43:19.830Z,5.50
2018-02-09T04:45:48.228Z,5.65
2018-02-09T04:48:16.612Z,5.20
2018-02-09T04:50:45.026Z,4.85
2018-02-09T04:53:13.410Z,5.07
2018-02-09T04:55:41.954Z,4.80
2018-02-09T04:58:10.351Z,5.45
2018-02-09T05:00:38.836Z,5.97
2018-02-09T05:03:07.220Z,7.10
2018-02-09T05:05:35.605Z,6.40
2018-02-09T05:08:04.079Z,8.00
2018-02-09T05:10:32.491Z,8.20
2018-02-09T05:13:00.887Z,11.12
2018-02-09T05:15:29.268Z,9.73
2018-02-09T05:17:57.671Z,10.45
2018-02-09T05:20:26.143Z,9.18
2018-02-09T05:22:54.521Z,10.00
2018-02-09T05:25:22.932Z,11.40
2018-02-09T05:27:51.334Z,12.98
2018-02-09T05:30:19.722Z,11.48
2018-02-09T05:32:48.145Z,13.05
2018-02-09T05:35:16.543Z,15.20
2018-02-09T05:37:45.092Z,15.52
2018-02-09T05:40:13.492Z,18.25
2018-02-09T05:42:41.889Z,19.50
2018-02-09T05:45:10.281Z,18.27
2018-02-09T05:47:38.770Z,18.75
2018-02-09T05:50:07.315Z,19.27
2018-02-09T05:52:35.775Z,19.67
2018-02-09T05:55:04.181Z,18.95
2018-02-09T05:57:32.581Z,21.48
2018-02-09T06:00:00.976Z,22.60
2018-02-09T06:02:29.431Z,24.90
2018-02-09T06:04:57.887Z,27.83
2018-02-09T06:07:26.289Z,27.70
2018-02-09T06:09:54.697Z,28.85
2018-02-09T06:12:23.116Z,29.52
2018-02-09T06:14:51.532Z,31.25
2018-02-09T06:17:19.938Z,29.48
2018-02-09T06:19:48.409Z,31.60
2018-02-09T06:22:16.814Z,28.35
2018-02-09T06:24:45.286Z,28.62
2018-02-09T06:27:13.696Z,32.17
2018-02-09T06:29:42.108Z,34.63
2018-02-09T06:32:10.561Z,31.50
2018-02-09T06:34:38.970Z,34.83
2018-02-09T06:37:07.369Z,37.38
2018-02-09T06:39:35.737Z,34.22
2018-02-09T06:42:04.127Z,38.78
2018-02-09T06:44:32.594Z,38.83
2018-02-09T06:47:01.006Z,42.30
2018-02-09T06:49:29.410Z,43.25
2018-02-09T06:51:57.827Z,48.53
2018-02-09T06:54:26.277Z,51.70
2018-02-09T06:56:54.754Z,54.40
2018-02-09T06:59:23.147Z,56.95
2018-02-09T07:01:51.557Z,54.45
2018-02-09T07:04:19.953Z,57.53
2018-02-09T07:06:48.345Z,58.40
2018-02-09T07:09:16.807Z,55.47
2018-02-09T07:11:45.205Z,58.05
2018-02-09T07:14:13.613Z,56.03
2018-02-09T07:16:42.007Z,54.50
2018-02-09T07:19:10.414Z,55.10
2018-02-09T07:21:38.937Z,51.72
2018-02-09T07:24:07.331Z,52.10
2018-02-09T07:26:35.745Z,52.78
2018-02-09T07:29:04.146Z,52.15
2018-02-09T07:31:32.582Z,53.83
2018-02-09T07:34:01.043Z,51.20
2018-02-09T07:36:29.445Z,51.67
2018-02-09T07:38:57.875Z,47.30
2018-02-09T07:41:26.280Z,52.28
2018-02-09T07:43:54.688Z,50.40
2018-02-09T07:46:23.168Z,54.30
2018-02-09T07:48:51.570Z,51.13
2018-02-09T07:51:19.954Z,49.90
2018-02-09T07:53:48.364Z,49.22
2018-02-09T07:56:16.766Z,52.60
2018-02-09T07:58:45.210Z,47.03
2018-02-09T08:01:13.620Z,48.60
2018-02-09T08:03:42.023Z,46.53
2018-02-09T08:06:10.481Z,47.80
2018-02-09T08:08:38.856Z,43.85
2018-02-09T08:11:07.341Z,45.53
2018-02-09T08:13:35.750Z,44.72
2018-02-09T08:16:04.138Z,47.20
2018-02-09T08:18:32.567Z,47.20
2018-02-09T08:21:00.970Z,44.38
2018-02-09T08:23:29.532Z,39.05
2018-02-09T08:25:57.935Z,41.83
2018-02-09T08:28:26.333Z,42.97
2018-02-09T08:30:54.783Z,47.35
2018-02-09T08:33:23.263Z,43.42
2018-02-09T08:35:51.691Z,43.35
2018-02-09T08:38:20.075Z,41.70
2018-02-09T08:40:48.840Z,42.72
2018-02-09T08:43:17.539Z,44.08
2018-02-09T08:45:46.083Z,42.90
2018-02-09T08:48:14.495Z,43.45
2018-02-09T08:50:42.893Z,40.97
2018-02-09T08:53:11.379Z,40.72
2018-02-09T08:55:39.859Z,40.95
2018-02-09T08:58:08.296Z,41.08
2018-02-09T09:00:36.718Z,41.33
2018-02-09T09:03:05.122Z,40.30
2018-02-09T09:05:33.570Z,36.17
2018-02-09T09:08:01.969Z,37.33
2018-02-09T09:10:30.439Z,38.75
2018-02-09T09:12:58.847Z,37.08
2018-02-09T09:15:27.279Z,38.00
2018-02-09T09:17:55.665Z,36.97
2018-02-09T09:20:24.051Z,37.13
2018-02-09T09:22:52.616Z,38.78
2018-02-09T09:25:21.018Z,37.95
2018-02-09T09:27:49.438Z,37.22
2018-02-09T09:30:17.839Z,37.65
2018-02-09T09:32:46.246Z,34.10
2018-02-09T09:35:15.118Z,34.65
2018-02-09T09:37:43.494Z,36.35
2018-02-09T09:40:11.913Z,38.35
2018-02-09T09:42:40.296Z,36.90
2018-02-09T09:45:08.700Z,40.22
2018-02-09T09:47:37.150Z,37.10
2018-02-09T09:50:05.572Z,36.10
2018-02-09T09:52:34.070Z,35.67
2018-02-09T09:55:02.469Z,35.70
2018-02-09T09:57:30.945Z,38.60
2018-02-09T09:59:59.348Z,32.60
2018-02-09T10:02:41.299Z,35.45
2018-02-09T10:05:09.713Z,33.78
2018-02-09T10:07:38.122Z,36.93
2018-02-09T10:10:06.827Z,34.70
2018-02-09T10:12:35.425Z,35.53
2018-02-09T10:15:03.961Z,34.57
2018-02-09T10:17:32.374Z,33.13
2018-02-09T10:20:00.769Z,34.37
2018-02-09T10:22:29.181Z,35.50
2018-02-09T10:24:57.576Z,33.87
2018-02-09T10:27:26.038Z,36.50
2018-02-09T10:29:54.498Z,33.00
2018-02-09T10:32:22.894Z,32.60
2018-02-09T10:34:51.320Z,32.97
2018-02-09T10:37:19.755Z,35.50
2018-02-09T10:39:48.219Z,34.83
2018-02-09T10:42:16.620Z,32.97
2018-02-09T10:44:45.047Z,32.43
2018-02-09T10:47:13.496Z,31.50
2018-02-09T10:49:41.899Z,34.27
2018-02-09T10:52:10.343Z,33.27
2018-02-09T10:54:38.911Z,34.57
2018-02-09T10:57:07.359Z,34.33
2018-02-09T10:59:35.843Z,33.63
2018-02-09T11:02:04.238Z,34.30
2018-02-09T11:04:32.639Z,35.92
2018-02-09T11:07:01.180Z,32.43
2018-02-09T11:09:31.495Z,33.92
2018-02-09T11:12:01.879Z,32.70
2018-02-09T11:14:30.286Z,34.15
2018-02-09T11:16:58.914Z,33.63
2018-02-09T11:19:27.394Z,34.13
2018-02-09T11:21:56.003Z,33.88
2018-02-09T11:24:24.571Z,32.42
2018-02-09T11:26:53.395Z,33.75
2018-02-09T11:29:22.220Z,31.75
2018-02-09T11:31:51.048Z,34.90
2018-02-09T11:34:20.040Z,33.63
2018-02-09T11:36:48.702Z,32.85
2018-02-09T11:39:17.387Z,34.53
2018-02-09T11:41:46.156Z,35.50
2018-02-09T11:44:14.850Z,33.90
2018-02-09T11:46:44.029Z,32.58
2018-02-09T11:49:12.884Z,33.42
2018-02-09T11:51:41.828Z,32.72
2018-02-09T11:54:10.946Z,30.85
2018-02-09T11:56:39.426Z,32.65
2018-02-09T11:59:08.048Z,32.53
2018-02-09T12:01:36.745Z,33.38
2018-02-09T12:04:05.334Z,32.97
2018-02-09T12:06:34.050Z,30.48
2018-02-09T12:09:02.925Z,34.15
2018-02-09T12:11:31.792Z,31.85
2018-02-09T12:14:00.506Z,30.70
2018-02-09T12:16:29.162Z,31.90
2018-02-09T12:18:57.892Z,32.83
2018-02-09T12:21:26.719Z,30.20
2018-02-09T12:23:55.356Z,31.85
2018-02-09T12:26:24.401Z,30.80
2018-02-09T12:28:52.880Z,31.73
2018-02-09T12:31:21.581Z,32.13
2018-02-09T12:33:50.224Z,30.17
2018-02-09T12:36:19.011Z,32.13
2018-02-09T12:38:48.485Z,32.45
2018-02-09T12:41:17.076Z,32.75
2018-02-09T12:43:45.475Z,30.50
2018-02-09T12:46:13.881Z,33.50
2018-02-09T12:48:42.442Z,32.47
2018-02-09T12:51:10.830Z,30.85
2018-02-09T12:53:39.320Z,30.80
2018-02-09T12:56:07.726Z,30.37
2018-02-09T12:58:36.139Z,31.17
2018-02-09T13:01:04.646Z,32.87
2018-02-09T13:03:33.039Z,30.50
2018-02-09T13:06:01.419Z,32.37
2018-02-09T13:08:29.815Z,29.43
2018-02-09T13:10:58.250Z,30.50
2018-02-09T13:13:26.653Z,29.50
2018-02-09T13:15:55.027Z,30.30
2018-02-09T13:18:35.892Z,30.50
2018-02-09T13:21:04.297Z,31.30
2018-02-09T13:23:44.655Z,29.90
2018-02-09T13:26:13.075Z,30.55
2018-02-09T13:28:53.261Z,32.40
2018-02-09T13:31:21.767Z,31.70
2018-02-09T13:33:50.147Z,32.47
2018-02-09T13:36:18.573Z,31.00
2018-02-09T13:38:46.988Z,31.40
2018-02-09T13:41:15.395Z,32.63
2018-02-09T13:43:43.803Z,34.47
2018-02-09T13:46:12.253Z,33.40
2018-02-09T13:48:40.658Z,33.40
2018-02-09T13:51:09.047Z,32.97
2018-02-09T13:53:37.438Z,33.08
2018-02-09T13:56:05.852Z,33.83
2018-02-09T13:58:34.305Z,31.42
2018-02-09T14:01:02.696Z,32.67
2018-02-09T14:03:32.070Z,33.83
2018-02-09T14:06:00.427Z,33.92
2018-02-09T14:08:28.826Z,34.35
2018-02-09T14:10:57.370Z,34.42
2018-02-09T14:13:25.775Z,33.70
2018-02-09T14:15:54.770Z,35.30
2018-02-09T14:18:23.165Z,35.22
2018-02-09T14:20:51.677Z,33.88
2018-02-09T14:23:20.141Z,35.92
2018-02-09T14:25:48.518Z,34.30
2018-02-09T14:28:17.000Z,34.60
2018-02-09T14:30:45.391Z,33.55
2018-02-09T14:33:13.801Z,34.60
2018-02-09T14:35:42.211Z,34.25
2018-02-09T14:38:10.610Z,33.38
2018-02-09T14:40:39.267Z,35.38
2018-02-09T14:43:07.671Z,34.75
2018-02-09T14:45:36.153Z,35.45
2018-02-09T14:48:04.549Z,34.78
2018-02-09T14:50:33.079Z,35.33
2018-02-09T14:53:01.509Z,34.83
2018-02-09T14:55:30.010Z,33.72
2018-02-09T14:57:58.521Z,34.30
2018-02-09T15:00:26.918Z,32.78
2018-02-09T15:02:55.395Z,31.73
2018-02-09T15:05:23.832Z,31.40
2018-02-09T15:07:52.226Z,32.88
2018-02-09T15:10:20.982Z,30.75
2018-02-09T15:12:49.404Z,31.50
2018-02-09T15:15:17.813Z,32.28
2018-02-09T15:17:46.195Z,31.02
2018-02-09T15:20:14.607Z,30.58
2018-02-09T15:22:43.098Z,31.05
2018-02-09T15:25:11.581Z,30.98
2018-02-09T15:27:40.040Z,31.73
2018-02-09T15:30:08.446Z,32.20
2018-02-09T15:32:36.890Z,32.45
2018-02-09T15:35:05.474Z,29.90
2018-02-09T15:37:33.880Z,34.03
2018-02-09T15:40:02.291Z,31.10
2018-02-09T15:42:30.671Z,31.87
2018-02-09T15:44:59.116Z,31.40
2018-02-09T15:47:27.519Z,32.45
2018-02-09T15:49:55.900Z,31.52
2018-02-09T15:52:25.071Z,31.55
2018-02-09T15:54:53.480Z,32.53
2018-02-09T15:57:21.869Z,32.25
2018-02-09T15:59:50.260Z,33.83
2018-02-09T16:02:18.664Z,32.10
2018-02-09T16:04:47.110Z,33.45
2018-02-09T16:07:15.510Z,35.88
2018-02-09T16:09:44.396Z,36.72
2018-02-09T16:12:12.793Z,35.97
2018-02-09T16:14:41.219Z,33.42
2018-02-09T16:17:09.630Z,33.55
2018-02-09T16:19:38.024Z,33.42
2018-02-09T16:22:06.485Z,30.73
2018-02-09T16:24:34.895Z,32.58
2018-02-09T16:27:03.388Z,35.63
2018-02-09T16:29:31.795Z,34.42
2018-02-09T16:32:00.219Z,36.90
2018-02-09T16:34:28.658Z,33.97
2018-02-09T16:36:57.044Z,36.38
2018-02-09T16:39:25.525Z,34.70
2018-02-09T16:41:53.932Z,35.13
2018-02-09T16:44:22.330Z,32.35
2018-02-09T16:46:50.742Z,32.47
2018-02-09T16:49:19.170Z,34.45
2018-02-09T16:51:47.661Z,33.78
2018-02-09T16:54:16.023Z,32.88
2018-02-09T16:56:44.419Z,31.27
2018-02-09T16:59:12.901Z,32.17
2018-02-09T17:01:41.291Z,30.23
2018-02-09T17:04:09.730Z,32.42
2018-02-09T17:06:38.104Z,31.52
2018-02-09T17:09:06.493Z,32.45
2018-02-09T17:11:34.943Z,35.53
2018-02-09T17:14:03.470Z,30.40
2018-02-09T17:16:31.866Z,31.45
2018-02-09T17:19:00.375Z,30.42
2018-02-09T17:21:28.767Z,29.80
2018-02-09T17:23:57.193Z,28.77
2018-02-09T17:26:25.583Z,28.77
2018-02-09T17:28:54.104Z,25.62
2018-02-09T17:31:22.584Z,25.73
2018-02-09T17:33:51.129Z,24.50
2018-02-09T17:36:19.583Z,24.15
2018-02-09T17:38:47.995Z,24.05
2018-02-09T17:41:16.566Z,24.30
2018-02-09T17:43:44.935Z,24.00
2018-02-09T17:46:13.286Z,23.45
2018-02-09T17:48:41.822Z,24.70
2018-02-09T17:51:10.195Z,22.87
2018-02-09T17:53:38.602Z,24.50
2018-02-09T17:56:07.025Z,23.77
2018-02-09T17:58:35.472Z,21.62
2018-02-09T18:01:03.947Z,22.20
2018-02-09T18:03:32.353Z,22.55
2018-02-09T18:06:00.743Z,22.48
2018-02-09T18:08:29.160Z,20.00
2018-02-09T18:10:57.744Z,22.52
2018-02-09T18:13:26.142Z,21.37
2018-02-09T18:15:54.626Z,20.77
2018-02-09T18:18:23.013Z,20.80
2018-02-09T18:20:51.457Z,21.35
2018-02-09T18:23:19.879Z,20.95
2018-02-09T18:25:48.265Z,20.90
2018-02-09T18:28:16.685Z,21.80
2018-02-09T18:30:45.064Z,21.95
2018-02-09T18:33:13.479Z,20.15
2018-02-09T18:35:41.858Z,20.40
2018-02-09T18:38:10.272Z,19.85
2018-02-09T18:40:38.728Z,19.48
2018-02-09T18:43:07.109Z,22.52
2018-02-09T18:45:35.526Z,22.25
2018-02-09T18:48:03.931Z,20.83
2018-02-09T18:50:32.326Z,20.15
2018-02-09T18:53:01.125Z,20.65
2018-02-09T18:55:29.540Z,22.25
2018-02-09T18:57:58.123Z,20.42
2018-02-09T19:00:26.513Z,19.37
2018-02-09T19:02:54.917Z,21.30
2018-02-09T19:05:23.386Z,19.40
2018-02-09T19:07:51.795Z,20.62
2018-02-09T19:10:20.298Z,19.58
2018-02-09T19:12:48.729Z,18.52
2018-02-09T19:15:17.118Z,18.73
2018-02-09T19:17:45.951Z,21.05
2018-02-09T19:20:14.443Z,20.35
2018-02-09T19:22:42.849Z,20.12
2018-02-09T19:25:11.301Z,20.92
2018-02-09T19:27:39.719Z,20.67
2018-02-09T19:30:08.191Z,21.15
2018-02-09T19:32:36.734Z,19.52
2018-02-09T19:35:05.169Z,18.80
2018-02-09T19:37:33.554Z,18.30
2018-02-09T19:40:02.010Z,21.60
2018-02-09T19:42:30.421Z,20.12
2018-02-09T19:44:58.856Z,20.27
2018-02-09T19:47:27.233Z,20.42
2018-02-09T19:49:55.602Z,17.12
2018-02-09T19:52:24.043Z,20.02
2018-02-09T19:54:52.430Z,17.75
2018-02-09T19:57:20.826Z,18.17
2018-02-09T19:59:49.237Z,19.62
2018-02-09T20:02:17.662Z,19.33
2018-02-09T20:04:46.202Z,18.42
2018-02-09T20:07:14.611Z,18.05
2018-02-09T20:09:43.039Z,19.05
2018-02-09T20:12:11.450Z,17.85
2018-02-09T20:14:39.926Z,16.92
2018-02-09T20:17:08.454Z,19.40
2018-02-09T20:19:36.863Z,19.12
2018-02-09T20:22:05.349Z,15.85
2018-02-09T20:24:33.718Z,15.10
2018-02-09T20:27:02.307Z,16.48
2018-02-09T20:29:30.744Z,15.77
2018-02-09T20:31:59.168Z,15.55
2018-02-09T20:34:27.628Z,15.73
2018-02-09T20:36:56.040Z,16.45
2018-02-09T20:39:24.526Z,14.23
2018-02-09T20:41:53.029Z,15.65
2018-02-09T20:44:21.409Z,15.55
2018-02-09T20:46:49.806Z,16.67
2018-02-09T20:49:18.227Z,18.05
2018-02-09T20:51:46.699Z,17.75
2018-02-09T20:54:15.109Z,17.27
2018-02-09T20:56:43.496Z,17.67
2018-02-09T20:59:11.913Z,18.95
2018-02-09T21:01:40.425Z,18.33
2018-02-09T21:04:08.866Z,16.73
2018-02-09T21:06:37.282Z,18.60
2018-02-09T21:09:05.737Z,17.92
2018-02-09T21:11:34.163Z,18.50
2018-02-09T21:14:02.557Z,17.55
2018-02-09T21:16:31.039Z,17.80
2018-02-09T21:18:59.434Z,17.25
2018-02-09T21:21:27.857Z,18.25
2018-02-09T21:23:56.346Z,16.10
2018-02-09T21:26:24.801Z,15.20
2018-02-09T21:28:53.566Z,15.30
2018-02-09T21:31:21.984Z,13.93
2018-02-09T21:33:50.453Z,14.10
2018-02-09T21:36:18.861Z,14.50
2018-02-09T21:38:47.287Z,13.45
2018-02-09T21:41:15.735Z,14.38
2018-02-09T21:43:44.139Z,12.52
2018-02-09T21:46:12.548Z,13.02
2018-02-09T21:48:40.914Z,12.82
2018-02-09T21:51:09.307Z,14.48
2018-02-09T21:53:37.766Z,13.35
2018-02-09T21:56:06.181Z,13.05
2018-02-09T21:58:34.573Z,13.90
2018-02-09T22:01:02.932Z,14.35
2018-02-09T22:03:31.293Z,14.00
2018-02-09T22:05:59.802Z,13.65
2018-02-09T22:08:28.179Z,13.27
2018-02-09T22:10:56.614Z,13.73
2018-02-09T22:13:25.000Z,13.13
2018-02-09T22:15:53.398Z,12.65
2018-02-09T22:18:21.792Z,13.52
2018-02-09T22:20:50.295Z,13.65
2018-02-09T22:23:18.730Z,13.43
2018-02-09T22:25:47.125Z,14.50
2018-02-09T22:28:15.713Z,13.98
2018-02-09T22:30:44.127Z,15.35
2018-02-09T22:33:12.521Z,15.65
2018-02-09T22:35:40.905Z,15.73
2018-02-09T22:38:09.327Z,15.40
2018-02-09T22:40:37.787Z,14.10
2018-02-09T22:43:06.211Z,15.75
2018-02-09T22:45:34.623Z,16.45
2018-02-09T22:48:03.040Z,15.98
2018-02-09T22:50:31.525Z,14.52
2018-02-09T22:53:00.026Z,15.63
2018-02-09T22:55:28.403Z,15.43
2018-02-09T22:57:56.835Z,17.58
2018-02-09T23:00:25.332Z,16.00
2018-02-09T23:02:53.726Z,14.50
2018-02-09T23:05:22.184Z,15.00
2018-02-09T23:07:50.664Z,16.80
2018-02-09T23:10:19.067Z,17.35
2018-02-09T23:12:47.459Z,16.12
2018-02-09T23:15:15.863Z,16.95
2018-02-09T23:17:44.340Z,18.35
2018-02-09T23:20:12.820Z,15.15
2018-02-09T23:22:41.205Z,15.75
2018-02-09T23:25:09.624Z,17.67
2018-02-09T23:27:38.041Z,17.10
2018-02-09T23:30:06.487Z,15.00
2018-02-09T23:32:34.891Z,15.13
2018-02-09T23:35:03.439Z,14.98
2018-02-09T23:37:31.832Z,16.60
2018-02-09T23:40:00.235Z,15.80
2018-02-09T23:42:28.639Z,14.50
2018-02-09T23:44:57.032Z,15.43
2018-02-09T23:47:25.478Z,16.52
2018-02-09T23:49:53.880Z,18.42
2018-02-09T23:52:22.366Z,16.05
2018-02-09T23:54:50.782Z,15.80
2018-02-09T23:57:19.258Z,15.35
2018-02-09T23:59:47.761Z,15.60
